CSCL Long Beach — VRCZ7 — position and weather

sailwx.info

Track history (hours):
 
Tides and Currents Weather Stations Pressure Air Temp Water Temp Dewpoint Dewpoint Depression Visibility Wind Speed Wind Dir Waves Ship Positions

CSCL Long Beach

Last reported at 2018-Apr-26 22:30 UTC. Time now 2018-Apr-26 22:57 UTC.
Position N 51°19' W 129°33'.

Length 336.7 m; beam 45.6 m; draft 15 m.

Type: Cargo ship. MMSI: 477883900.

Date/timePositionNaut miles runAvg speedWind from/ knotsBaromVisibWave heightAir tempDewpointWater temp
2018-Apr-26 22:30N 51°19' W 129°33'1 1.2
2018-Apr-26 22:00N 51°19' W 129°34'1 1.3
2018-Apr-26 21:30N 51°20' W 129°34'2 1.4
2018-Apr-26 20:10N 51°21' W 129°37'0 1.5
2018-Apr-26 19:59N 51°21' W 129°37'1 1.4
2018-Apr-26 19:29N 51°22' W 129°38'1 1.3
2018-Apr-26 18:59N 51°22' W 129°39'1 1.2
2018-Apr-26 18:29N 51°22' W 129°40'1 1.2
2018-Apr-26 17:49N 51°23' W 129°41'3 1.5
2018-Apr-26 16:07N 51°24' W 129°44'1 1.6
2018-Apr-26 15:44N 51°25' W 129°45'1 1.0
2018-Apr-26 15:01N 51°25' W 129°45'0 0.4
2018-Apr-26 15:00N 51°25' W 129°45'0 0.7
2018-Apr-26 14:30N 51°25' W 129°45'5 9.7
2018-Apr-26 14:00N 51°30' W 129°47'611.6
2018-Apr-26 13:30N 51°35' W 129°50'611.6
2018-Apr-26 13:00N 51°41' W 129°54'612.1
2018-Apr-26 12:30N 51°46' W 129°57'612.7
2018-Apr-26 12:00N 51°52' W 130°01'612.7
2018-Apr-26 11:30N 51°58' W 130°05'713.1
2018-Apr-26 11:00N 52°04' W 130°08'713.3
2018-Apr-26 10:30N 52°10' W 130°12'713.3
2018-Apr-26 10:00N 52°17' W 130°16'613.1
2018-Apr-26 09:30N 52°23' W 130°20'713.1
2018-Apr-26 08:58N 52°29' W 130°24'613.1
2018-Apr-26 08:30N 52°35' W 130°27'713.4
2018-Apr-26 08:00N 52°41' W 130°32'813.4
2018-Apr-26 07:25N 52°48' W 130°36'1013.1
2018-Apr-26 06:42N 52°57' W 130°42'212.8
2018-Apr-26 06:30N 52°60' W 130°43'712.6
2018-Apr-26 05:56N 53°06' W 130°48'912.4
2018-Apr-26 05:12N 53°15' W 130°54'212.2
2018-Apr-26 05:00N 53°17' W 130°55'612.1
2018-Apr-26 04:30N 53°23' W 130°56'712.7
2018-Apr-26 03:59N 53°30' W 130°57'612.3
2018-Apr-26 03:30N 53°35' W 130°58'612.5
2018-Apr-26 03:00N 53°42' W 130°58'612.7
2018-Apr-26 02:30N 53°48' W 130°59'713.2
2018-Apr-26 02:00N 53°55' W 131°00'713.2
2018-Apr-26 01:30N 54°01' W 131°01'613.1
2018-Apr-26 01:00N 54°08' W 131°02'713.0
2018-Apr-26 00:30N 54°14' W 131°02'611.7
2018-Apr-26 00:00N 54°19' W 130°56'5 9.7
2018-Apr-25 23:30N 54°16' W 130°48'816.5
2018-Apr-25 23:00N 54°14' W 130°35'816.2
2018-Apr-25 22:30N 54°12' W 130°22'510.7
2018-Apr-25 22:00N 54°17' W 130°22'0 0.8
2018-Apr-25 21:28N 54°17' W 130°22'0 0.0
2018-Apr-25 20:58N 54°17' W 130°22'0 0.0
2018-Apr-25 20:28N 54°17' W 130°22'0 0.0
2018-Apr-25 19:58N 54°17' W 130°22'0 0.0
2018-Apr-25 19:28N 54°17' W 130°22'0 0.0
2018-Apr-25 18:58N 54°17' W 130°22'0 0.0
2018-Apr-25 18:28N 54°17' W 130°22'0 0.0
2018-Apr-25 17:58N 54°17' W 130°22'0 0.0
2018-Apr-25 17:28N 54°17' W 130°22'0 0.0
2018-Apr-25 16:55N 54°17' W 130°22'0 0.0
2018-Apr-25 16:28N 54°17' W 130°22'0 0.0
2018-Apr-25 15:58N 54°17' W 130°22'0 0.0
2018-Apr-25 15:28N 54°17' W 130°22'0 0.0
2018-Apr-25 14:55N 54°17' W 130°22'0 0.0
2018-Apr-25 14:28N 54°17' W 130°22'0 0.0
2018-Apr-25 13:58N 54°17' W 130°22'0 0.0
2018-Apr-25 13:28N 54°17' W 130°22'0 0.0
2018-Apr-25 12:58N 54°17' W 130°22'0 0.0
2018-Apr-25 12:28N 54°17' W 130°22'0 0.0
2018-Apr-25 11:58N 54°17' W 130°22'0 0.0
2018-Apr-25 11:28N 54°17' W 130°22'0 0.0
2018-Apr-25 10:58N 54°17' W 130°22'0 0.0
2018-Apr-25 10:28N 54°17' W 130°22'0 0.0
2018-Apr-25 09:58N 54°17' W 130°22'0 0.0
2018-Apr-25 09:28N 54°17' W 130°22'0 0.0
2018-Apr-25 08:58N 54°17' W 130°22'0 0.0
2018-Apr-25 08:22N 54°17' W 130°22'0 0.0
2018-Apr-25 07:58N 54°17' W 130°22'0 0.0
2018-Apr-25 07:28N 54°17' W 130°22'0 0.0
2018-Apr-25 06:58N 54°17' W 130°22'0 0.0
2018-Apr-25 06:28N 54°17' W 130°22'0 0.0
2018-Apr-25 05:58N 54°17' W 130°22'0 0.0
2018-Apr-25 05:22N 54°17' W 130°22'0 0.0
2018-Apr-25 04:58N 54°17' W 130°22'0 0.0
2018-Apr-25 04:28N 54°17' W 130°22'0 0.0
2018-Apr-25 03:58N 54°17' W 130°22'0 0.0
2018-Apr-25 03:28N 54°17' W 130°22'0 0.0
2018-Apr-25 02:58N 54°17' W 130°22'0 0.0
2018-Apr-25 02:28N 54°17' W 130°22'0 0.0
2018-Apr-25 01:58N 54°17' W 130°22'0 0.0
2018-Apr-25 01:28N 54°17' W 130°22'0 0.0
2018-Apr-25 00:58N 54°17' W 130°22'0 0.0
2018-Apr-25 00:28N 54°17' W 130°22'0 0.0
2018-Apr-24 23:58N 54°17' W 130°22'0 0.0
2018-Apr-24 23:28N 54°17' W 130°22'0 0.0
2018-Apr-24 22:58N 54°17' W 130°22'0 0.0
2018-Apr-24 22:28N 54°17' W 130°22'0 0.0
2018-Apr-24 21:58N 54°17' W 130°22'0 0.0
2018-Apr-24 21:28N 54°17' W 130°22'0 0.0
2018-Apr-24 20:52N 54°17' W 130°22'0 0.0
2018-Apr-24 20:25N 54°17' W 130°22'0 0.0
2018-Apr-24 19:55N 54°17' W 130°22'0 0.0
2018-Apr-24 19:28N 54°17' W 130°22'0 0.0
2018-Apr-24 18:58N 54°17' W 130°22'0 0.0
2018-Apr-24 18:28N 54°17' W 130°22'0 0.0
2018-Apr-24 17:58N 54°17' W 130°22'0 0.0
2018-Apr-24 17:25N 54°17' W 130°22'0 0.0
2018-Apr-24 16:58N 54°17' W 130°22'0 0.0
2018-Apr-24 16:25N 54°17' W 130°22'0 0.0
2018-Apr-24 15:58N 54°17' W 130°22'0 0.0
2018-Apr-24 15:28N 54°17' W 130°22'0 0.0
2018-Apr-24 14:58N 54°17' W 130°22'0 0.0
2018-Apr-24 14:16N 54°17' W 130°22'0 0.0
2018-Apr-24 13:58N 54°17' W 130°22'0 0.0
2018-Apr-24 13:28N 54°17' W 130°22'0 0.0
2018-Apr-24 12:58N 54°17' W 130°22'0 0.0
2018-Apr-24 12:28N 54°17' W 130°22'0 0.0
2018-Apr-24 11:58N 54°17' W 130°22'0 0.0
2018-Apr-24 11:28N 54°17' W 130°22'0 0.0
2018-Apr-24 10:58N 54°17' W 130°22'0 0.0
2018-Apr-24 10:28N 54°17' W 130°22'0 0.0
2018-Apr-24 09:58N 54°17' W 130°22'0 0.0
2018-Apr-24 09:30N 54°17' W 130°22'0 0.0
2018-Apr-24 09:00N 54°17' W 130°22'0 0.0
2018-Apr-24 08:30N 54°17' W 130°22'0 0.0
2018-Apr-24 08:00N 54°17' W 130°22'0 0.0
2018-Apr-24 07:30N 54°17' W 130°22'0 0.0
2018-Apr-24 07:00N 54°17' W 130°22'0 0.0
2018-Apr-24 06:30N 54°17' W 130°22'0 0.0
2018-Apr-24 06:01N 54°17' W 130°22'0 0.0
2018-Apr-24 05:30N 54°17' W 130°22'0 0.0
2018-Apr-24 05:00N 54°17' W 130°22'0 0.0
2018-Apr-24 04:30N 54°17' W 130°22'0 0.0
2018-Apr-24 04:00N 54°17' W 130°22'0 0.0
2018-Apr-24 03:30N 54°17' W 130°22'0 0.0
2018-Apr-24 03:00N 54°17' W 130°22'0 0.0
2018-Apr-24 02:30N 54°17' W 130°22'0 0.0
2018-Apr-24 02:00N 54°17' W 130°22'0 0.0
2018-Apr-24 01:30N 54°17' W 130°22'0 0.0
2018-Apr-24 01:00N 54°17' W 130°22'0 0.0
2018-Apr-24 00:30N 54°17' W 130°22'0 0.0
2018-Apr-24 00:00N 54°17' W 130°22'0 0.0
2018-Apr-23 23:30N 54°17' W 130°22'0 0.0
2018-Apr-23 23:00N 54°17' W 130°22'0 0.0
2018-Apr-23 22:30N 54°17' W 130°22'0 0.0
2018-Apr-23 22:00N 54°17' W 130°22'0 0.0
2018-Apr-23 21:30N 54°17' W 130°22'0 0.0
2018-Apr-23 21:00N 54°17' W 130°22'0 0.0
2018-Apr-23 20:30N 54°17' W 130°22'0 0.0
2018-Apr-23 20:00N 54°17' W 130°22'0 0.0
2018-Apr-23 19:30N 54°17' W 130°22'0 0.0
2018-Apr-23 19:01N 54°17' W 130°22'0 0.0
2018-Apr-23 18:30N 54°17' W 130°22'0 0.0
2018-Apr-23 18:00N 54°17' W 130°22'0 0.0
2018-Apr-23 17:30N 54°17' W 130°22'0 0.0
2018-Apr-23 17:00N 54°17' W 130°22'0 0.0
2018-Apr-23 16:30N 54°17' W 130°22'0 0.0
2018-Apr-23 16:00N 54°17' W 130°22'0 0.0
2018-Apr-23 15:30N 54°17' W 130°22'0 0.0
2018-Apr-23 15:00N 54°17' W 130°22'0 0.0
2018-Apr-23 14:30N 54°17' W 130°22'0 0.0
2018-Apr-23 14:00N 54°17' W 130°22'0 0.0
2018-Apr-23 13:30N 54°17' W 130°22'0 0.0
2018-Apr-23 13:00N 54°17' W 130°22'0 0.3
2018-Apr-23 12:30N 54°18' W 130°22'1 1.0
2018-Apr-23 12:00N 54°17' W 130°22'5 9.4
2018-Apr-23 11:30N 54°12' W 130°21'612.6
2018-Apr-23 11:00N 54°13' W 130°32'918.4
2018-Apr-23 10:30N 54°17' W 130°46'611.8
2018-Apr-23 10:00N 54°20' W 130°55'2 4.0
2018-Apr-23 09:30N 54°19' W 130°58'4 8.5
2018-Apr-23 09:00N 54°19' W 131°06'510.6
2018-Apr-23 08:30N 54°19' W 131°15'612.5
2018-Apr-23 08:00N 54°19' W 131°26'612.2
2018-Apr-23 07:30N 54°19' W 131°36'713.2
2018-Apr-23 06:59N 54°20' W 131°48'  
Track history (hours):
 
Tides and Currents Weather Stations Pressure Air Temp Water Temp Dewpoint Dewpoint Depression Visibility Wind Speed Wind Dir Waves Ship Positions

CSCL Long Beach

Last reported at 2018-Apr-26 22:30 UTC. Time now 2018-Apr-26 22:57 UTC.
Position N 51°19' W 129°33'.

Length 336.7 m; beam 45.6 m; draft 15 m.

Type: Cargo ship. MMSI: 477883900.

Date/timePositionNaut miles runAvg speedWind from/ knotsBaromVisibWave heightAir tempDewpointWater temp
2018-Apr-26 22:30N 51°19' W 129°33'1 1.2
2018-Apr-26 22:00N 51°19' W 129°34'1 1.3
2018-Apr-26 21:30N 51°20' W 129°34'2 1.4
2018-Apr-26 20:10N 51°21' W 129°37'0 1.5
2018-Apr-26 19:59N 51°21' W 129°37'1 1.4
2018-Apr-26 19:29N 51°22' W 129°38'1 1.3
2018-Apr-26 18:59N 51°22' W 129°39'1 1.2
2018-Apr-26 18:29N 51°22' W 129°40'1 1.2
2018-Apr-26 17:49N 51°23' W 129°41'3 1.5
2018-Apr-26 16:07N 51°24' W 129°44'1 1.6
2018-Apr-26 15:44N 51°25' W 129°45'1 1.0
2018-Apr-26 15:01N 51°25' W 129°45'0 0.4
2018-Apr-26 15:00N 51°25' W 129°45'0 0.7
2018-Apr-26 14:30N 51°25' W 129°45'5 9.7
2018-Apr-26 14:00N 51°30' W 129°47'611.6
2018-Apr-26 13:30N 51°35' W 129°50'611.6
2018-Apr-26 13:00N 51°41' W 129°54'612.1
2018-Apr-26 12:30N 51°46' W 129°57'612.7
2018-Apr-26 12:00N 51°52' W 130°01'612.7
2018-Apr-26 11:30N 51°58' W 130°05'713.1
2018-Apr-26 11:00N 52°04' W 130°08'713.3
2018-Apr-26 10:30N 52°10' W 130°12'713.3
2018-Apr-26 10:00N 52°17' W 130°16'613.1
2018-Apr-26 09:30N 52°23' W 130°20'713.1
2018-Apr-26 08:58N 52°29' W 130°24'613.1
2018-Apr-26 08:30N 52°35' W 130°27'713.4
2018-Apr-26 08:00N 52°41' W 130°32'813.4
2018-Apr-26 07:25N 52°48' W 130°36'1013.1
2018-Apr-26 06:42N 52°57' W 130°42'212.8
2018-Apr-26 06:30N 52°60' W 130°43'712.6
2018-Apr-26 05:56N 53°06' W 130°48'912.4
2018-Apr-26 05:12N 53°15' W 130°54'212.2
2018-Apr-26 05:00N 53°17' W 130°55'612.1
2018-Apr-26 04:30N 53°23' W 130°56'712.7
2018-Apr-26 03:59N 53°30' W 130°57'612.3
2018-Apr-26 03:30N 53°35' W 130°58'612.5
2018-Apr-26 03:00N 53°42' W 130°58'612.7
2018-Apr-26 02:30N 53°48' W 130°59'713.2
2018-Apr-26 02:00N 53°55' W 131°00'713.2
2018-Apr-26 01:30N 54°01' W 131°01'613.1
2018-Apr-26 01:00N 54°08' W 131°02'713.0
2018-Apr-26 00:30N 54°14' W 131°02'611.7
2018-Apr-26 00:00N 54°19' W 130°56'5 9.7
2018-Apr-25 23:30N 54°16' W 130°48'816.5
2018-Apr-25 23:00N 54°14' W 130°35'816.2
2018-Apr-25 22:30N 54°12' W 130°22'510.7
2018-Apr-25 22:00N 54°17' W 130°22'0 0.8
2018-Apr-25 21:28N 54°17' W 130°22'0 0.0
2018-Apr-25 20:58N 54°17' W 130°22'0 0.0
2018-Apr-25 20:28N 54°17' W 130°22'0 0.0
2018-Apr-25 19:58N 54°17' W 130°22'0 0.0
2018-Apr-25 19:28N 54°17' W 130°22'0 0.0
2018-Apr-25 18:58N 54°17' W 130°22'0 0.0
2018-Apr-25 18:28N 54°17' W 130°22'0 0.0
2018-Apr-25 17:58N 54°17' W 130°22'0 0.0
2018-Apr-25 17:28N 54°17' W 130°22'0 0.0
2018-Apr-25 16:55N 54°17' W 130°22'0 0.0
2018-Apr-25 16:28N 54°17' W 130°22'0 0.0
2018-Apr-25 15:58N 54°17' W 130°22'0 0.0
2018-Apr-25 15:28N 54°17' W 130°22'0 0.0
2018-Apr-25 14:55N 54°17' W 130°22'0 0.0
2018-Apr-25 14:28N 54°17' W 130°22'0 0.0
2018-Apr-25 13:58N 54°17' W 130°22'0 0.0
2018-Apr-25 13:28N 54°17' W 130°22'0 0.0
2018-Apr-25 12:58N 54°17' W 130°22'0 0.0
2018-Apr-25 12:28N 54°17' W 130°22'0 0.0
2018-Apr-25 11:58N 54°17' W 130°22'0 0.0
2018-Apr-25 11:28N 54°17' W 130°22'0 0.0
2018-Apr-25 10:58N 54°17' W 130°22'0 0.0
2018-Apr-25 10:28N 54°17' W 130°22'0 0.0
2018-Apr-25 09:58N 54°17' W 130°22'0 0.0
2018-Apr-25 09:28N 54°17' W 130°22'0 0.0
2018-Apr-25 08:58N 54°17' W 130°22'0 0.0
2018-Apr-25 08:22N 54°17' W 130°22'0 0.0
2018-Apr-25 07:58N 54°17' W 130°22'0 0.0
2018-Apr-25 07:28N 54°17' W 130°22'0 0.0
2018-Apr-25 06:58N 54°17' W 130°22'0 0.0
2018-Apr-25 06:28N 54°17' W 130°22'0 0.0
2018-Apr-25 05:58N 54°17' W 130°22'0 0.0
2018-Apr-25 05:22N 54°17' W 130°22'0 0.0
2018-Apr-25 04:58N 54°17' W 130°22'0 0.0
2018-Apr-25 04:28N 54°17' W 130°22'0 0.0
2018-Apr-25 03:58N 54°17' W 130°22'0 0.0
2018-Apr-25 03:28N 54°17' W 130°22'0 0.0
2018-Apr-25 02:58N 54°17' W 130°22'0 0.0
2018-Apr-25 02:28N 54°17' W 130°22'0 0.0
2018-Apr-25 01:58N 54°17' W 130°22'0 0.0
2018-Apr-25 01:28N 54°17' W 130°22'0 0.0
2018-Apr-25 00:58N 54°17' W 130°22'0 0.0
2018-Apr-25 00:28N 54°17' W 130°22'0 0.0
2018-Apr-24 23:58N 54°17' W 130°22'0 0.0
2018-Apr-24 23:28N 54°17' W 130°22'0 0.0
2018-Apr-24 22:58N 54°17' W 130°22'0 0.0
2018-Apr-24 22:28N 54°17' W 130°22'0 0.0
2018-Apr-24 21:58N 54°17' W 130°22'0 0.0
2018-Apr-24 21:28N 54°17' W 130°22'0 0.0
2018-Apr-24 20:52N 54°17' W 130°22'0 0.0
2018-Apr-24 20:25N 54°17' W 130°22'0 0.0
2018-Apr-24 19:55N 54°17' W 130°22'0 0.0
2018-Apr-24 19:28N 54°17' W 130°22'0 0.0
2018-Apr-24 18:58N 54°17' W 130°22'0 0.0
2018-Apr-24 18:28N 54°17' W 130°22'0 0.0
2018-Apr-24 17:58N 54°17' W 130°22'0 0.0
2018-Apr-24 17:25N 54°17' W 130°22'0 0.0
2018-Apr-24 16:58N 54°17' W 130°22'0 0.0
2018-Apr-24 16:25N 54°17' W 130°22'0 0.0
2018-Apr-24 15:58N 54°17' W 130°22'0 0.0
2018-Apr-24 15:28N 54°17' W 130°22'0 0.0
2018-Apr-24 14:58N 54°17' W 130°22'0 0.0
2018-Apr-24 14:16N 54°17' W 130°22'0 0.0
2018-Apr-24 13:58N 54°17' W 130°22'0 0.0
2018-Apr-24 13:28N 54°17' W 130°22'0 0.0
2018-Apr-24 12:58N 54°17' W 130°22'0 0.0
2018-Apr-24 12:28N 54°17' W 130°22'0 0.0
2018-Apr-24 11:58N 54°17' W 130°22'0 0.0
2018-Apr-24 11:28N 54°17' W 130°22'0 0.0
2018-Apr-24 10:58N 54°17' W 130°22'0 0.0
2018-Apr-24 10:28N 54°17' W 130°22'0 0.0
2018-Apr-24 09:58N 54°17' W 130°22'0 0.0
2018-Apr-24 09:30N 54°17' W 130°22'0 0.0
2018-Apr-24 09:00N 54°17' W 130°22'0 0.0
2018-Apr-24 08:30N 54°17' W 130°22'0 0.0
2018-Apr-24 08:00N 54°17' W 130°22'0 0.0
2018-Apr-24 07:30N 54°17' W 130°22'0 0.0
2018-Apr-24 07:00N 54°17' W 130°22'0 0.0
2018-Apr-24 06:30N 54°17' W 130°22'0 0.0
2018-Apr-24 06:01N 54°17' W 130°22'0 0.0
2018-Apr-24 05:30N 54°17' W 130°22'0 0.0
2018-Apr-24 05:00N 54°17' W 130°22'0 0.0
2018-Apr-24 04:30N 54°17' W 130°22'0 0.0
2018-Apr-24 04:00N 54°17' W 130°22'0 0.0
2018-Apr-24 03:30N 54°17' W 130°22'0 0.0
2018-Apr-24 03:00N 54°17' W 130°22'0 0.0
2018-Apr-24 02:30N 54°17' W 130°22'0 0.0
2018-Apr-24 02:00N 54°17' W 130°22'0 0.0
2018-Apr-24 01:30N 54°17' W 130°22'0 0.0
2018-Apr-24 01:00N 54°17' W 130°22'0 0.0
2018-Apr-24 00:30N 54°17' W 130°22'0 0.0
2018-Apr-24 00:00N 54°17' W 130°22'0 0.0
2018-Apr-23 23:30N 54°17' W 130°22'0 0.0
2018-Apr-23 23:00N 54°17' W 130°22'0 0.0
2018-Apr-23 22:30N 54°17' W 130°22'0 0.0
2018-Apr-23 22:00N 54°17' W 130°22'0 0.0
2018-Apr-23 21:30N 54°17' W 130°22'0 0.0
2018-Apr-23 21:00N 54°17' W 130°22'0 0.0
2018-Apr-23 20:30N 54°17' W 130°22'0 0.0
2018-Apr-23 20:00N 54°17' W 130°22'0 0.0
2018-Apr-23 19:30N 54°17' W 130°22'0 0.0
2018-Apr-23 19:01N 54°17' W 130°22'0 0.0
2018-Apr-23 18:30N 54°17' W 130°22'0 0.0
2018-Apr-23 18:00N 54°17' W 130°22'0 0.0
2018-Apr-23 17:30N 54°17' W 130°22'0 0.0
2018-Apr-23 17:00N 54°17' W 130°22'0 0.0
2018-Apr-23 16:30N 54°17' W 130°22'0 0.0
2018-Apr-23 16:00N 54°17' W 130°22'0 0.0
2018-Apr-23 15:30N 54°17' W 130°22'0 0.0
2018-Apr-23 15:00N 54°17' W 130°22'0 0.0
2018-Apr-23 14:30N 54°17' W 130°22'0 0.0
2018-Apr-23 14:00N 54°17' W 130°22'0 0.0
2018-Apr-23 13:30N 54°17' W 130°22'0 0.0
2018-Apr-23 13:00N 54°17' W 130°22'0 0.3
2018-Apr-23 12:30N 54°18' W 130°22'1 1.0
2018-Apr-23 12:00N 54°17' W 130°22'5 9.4
2018-Apr-23 11:30N 54°12' W 130°21'612.6
2018-Apr-23 11:00N 54°13' W 130°32'918.4
2018-Apr-23 10:30N 54°17' W 130°46'611.8
2018-Apr-23 10:00N 54°20' W 130°55'2 4.0
2018-Apr-23 09:30N 54°19' W 130°58'4 8.5
2018-Apr-23 09:00N 54°19' W 131°06'510.6
2018-Apr-23 08:30N 54°19' W 131°15'612.5
2018-Apr-23 08:00N 54°19' W 131°26'612.2
2018-Apr-23 07:30N 54°19' W 131°36'713.2
2018-Apr-23 06:59N 54°20' W 131°48'  

Dump ship's entire track history